Terminal Aerodrome Forecast
Issued by NWS Albany, NY

Home | Current Version | Previous Version | Text Only | Print | Product List | Glossary On
Versions: 1 2 3 4 5 6 7 8 9 10 11 12 13 14 15 16 17 18 19
733
FTUS41 KALY 232353 CCB
TAFPOU
TAF COR
KPOU 232353Z 2400/2424 15007KT P6SM BKN025 OVC060 WS020/17040KT
     FM240400 17010G18KT P6SM VCSH OVC020
     FM240900 18010G18KT P6SM OVC020 PROB30 2409/2414 4SM -SHRA BR
      OVC015
     FM241400 17012G20KT 3SM SHRA BR BKN015 OVC025
     FM242200 17010G20KT 1 1/2SM +SHRA BR BKN007 OVC015=

USA.gov is the U.S. government's official web portal to all federal, state and local government web resources and services.